createdAt,value
2017-09-30T00:00:56.884Z,101510
2017-09-30T00:03:23.649Z,101506
2017-09-30T00:05:50.247Z,101500
2017-09-30T00:08:17.411Z,101504
2017-09-30T00:10:43.799Z,101502
2017-09-30T00:13:10.823Z,101504
2017-09-30T00:15:37.170Z,101500
2017-09-30T00:18:04.135Z,101494
2017-09-30T00:20:31.406Z,101500
2017-09-30T00:22:59.132Z,101495
2017-09-30T00:25:25.891Z,101496
2017-09-30T00:27:52.413Z,101494
2017-09-30T00:30:18.847Z,101500
2017-09-30T00:32:45.884Z,101501
2017-09-30T00:35:12.749Z,101494
2017-09-30T00:37:39.434Z,101487
2017-09-30T00:40:06.369Z,101485
2017-09-30T00:42:33.046Z,101477
2017-09-30T00:44:59.887Z,101489
2017-09-30T00:47:26.297Z,101490
2017-09-30T00:49:53.256Z,101491
2017-09-30T00:52:19.988Z,101489
2017-09-30T00:54:46.621Z,101483
2017-09-30T00:57:13.120Z,101484
2017-09-30T00:59:40.557Z,101486
2017-09-30T01:02:07.749Z,101481
2017-09-30T01:04:34.563Z,101474
2017-09-30T01:07:02.629Z,101467
2017-09-30T01:09:29.621Z,101472
2017-09-30T01:11:56.773Z,101473
2017-09-30T01:14:23.026Z,101472
2017-09-30T01:16:49.275Z,101469
2017-09-30T01:19:15.561Z,101470
2017-09-30T01:21:41.814Z,101465
2017-09-30T01:24:08.406Z,101463
2017-09-30T01:26:34.706Z,101460
2017-09-30T01:29:01.710Z,101457
2017-09-30T01:31:27.974Z,101453
2017-09-30T01:33:54.244Z,101450
2017-09-30T01:36:20.498Z,101450
2017-09-30T01:38:46.766Z,101450
2017-09-30T01:41:13.053Z,101453
2017-09-30T01:43:39.310Z,101450
2017-09-30T01:46:05.613Z,101454
2017-09-30T01:48:31.926Z,101460
2017-09-30T01:50:58.450Z,101462
2017-09-30T01:53:24.734Z,101449
2017-09-30T01:55:51.039Z,101441
2017-09-30T01:58:17.297Z,101446
2017-09-30T02:00:43.615Z,101446
2017-09-30T02:03:09.890Z,101447
2017-09-30T02:05:36.153Z,101445
2017-09-30T02:08:02.418Z,101444
2017-09-30T02:10:28.738Z,101449
2017-09-30T02:12:54.982Z,101453
2017-09-30T02:15:22.015Z,101461
2017-09-30T02:17:48.301Z,101470
2017-09-30T02:20:14.566Z,101477
2017-09-30T02:22:40.811Z,101480
2017-09-30T02:25:07.257Z,101481
2017-09-30T02:27:34.238Z,101468
2017-09-30T02:30:00.482Z,101461
2017-09-30T02:32:26.737Z,101466
2017-09-30T02:34:52.973Z,101467
2017-09-30T02:37:19.210Z,101462
2017-09-30T02:39:46.225Z,101462
2017-09-30T02:42:12.457Z,101451
2017-09-30T02:44:38.690Z,101458
2017-09-30T02:47:04.945Z,101450
2017-09-30T02:49:31.925Z,101445
2017-09-30T02:51:58.158Z,101447
2017-09-30T02:54:24.446Z,101438
2017-09-30T02:56:51.448Z,101428
2017-09-30T02:59:17.684Z,101424
2017-09-30T03:01:43.934Z,101421
2017-09-30T03:04:10.169Z,101432
2017-09-30T03:06:36.453Z,101432
2017-09-30T03:09:03.074Z,101427
2017-09-30T03:11:29.313Z,101420
2017-09-30T03:13:55.555Z,101421
2017-09-30T03:16:22.002Z,101414
2017-09-30T03:18:48.247Z,101417
2017-09-30T03:21:14.477Z,101422
2017-09-30T03:23:40.721Z,101422
2017-09-30T03:26:07.701Z,101418
2017-09-30T03:28:33.938Z,101419
2017-09-30T03:31:00.512Z,101408
2017-09-30T03:33:26.750Z,101404
2017-09-30T03:35:53.732Z,101405
2017-09-30T03:38:19.997Z,101405
2017-09-30T03:40:46.225Z,101399
2017-09-30T03:43:12.454Z,101396
2017-09-30T03:45:38.802Z,101392
2017-09-30T03:48:05.033Z,101391
2017-09-30T03:50:31.266Z,101386
2017-09-30T03:52:57.525Z,101388
2017-09-30T03:55:23.754Z,101389
2017-09-30T03:57:49.986Z,101379
2017-09-30T04:00:16.494Z,101379
2017-09-30T04:02:43.485Z,101383
2017-09-30T04:05:09.717Z,101381
2017-09-30T04:07:36.097Z,101380
2017-09-30T04:10:03.098Z,101381
2017-09-30T04:12:29.345Z,101383
2017-09-30T04:14:55.579Z,101385
2017-09-30T04:17:21.815Z,101382
2017-09-30T04:19:48.564Z,101382
2017-09-30T04:22:15.541Z,101388
2017-09-30T04:24:41.782Z,101384
2017-09-30T04:27:08.045Z,101389
2017-09-30T04:29:34.278Z,101389
2017-09-30T04:32:00.526Z,101393
2017-09-30T04:34:27.546Z,101393
2017-09-30T04:36:53.803Z,101392
2017-09-30T04:39:20.783Z,101394
2017-09-30T04:41:47.057Z,101397
2017-09-30T04:44:13.298Z,101398
2017-09-30T04:46:40.293Z,101396
2017-09-30T04:49:06.762Z,101388
2017-09-30T04:51:33.048Z,101390
2017-09-30T04:53:59.277Z,101391
2017-09-30T04:56:25.533Z,101385
2017-09-30T04:58:51.761Z,101385
2017-09-30T05:01:17.994Z,101390
2017-09-30T05:03:44.264Z,101387
2017-09-30T05:06:11.230Z,101395
2017-09-30T05:08:37.465Z,101393
2017-09-30T05:11:03.925Z,101395
2017-09-30T05:13:30.171Z,101380
2017-09-30T05:15:56.420Z,101375
2017-09-30T05:18:23.425Z,101379
2017-09-30T05:20:49.652Z,101381
2017-09-30T05:23:15.897Z,101389
2017-09-30T05:25:42.422Z,101388
2017-09-30T05:28:08.661Z,101388
2017-09-30T05:30:34.898Z,101393
2017-09-30T05:33:01.918Z,101391
2017-09-30T05:35:28.149Z,101395
2017-09-30T05:37:54.386Z,101396
2017-09-30T05:40:20.781Z,101397
2017-09-30T05:42:47.012Z,101402
2017-09-30T05:45:13.277Z,101402
2017-09-30T05:47:39.781Z,101405
2017-09-30T05:50:06.017Z,101409
2017-09-30T05:52:32.262Z,101414
2017-09-30T05:54:59.264Z,101418
2017-09-30T05:57:25.497Z,101431
2017-09-30T05:59:51.739Z,101430
2017-09-30T06:02:18.298Z,101433
2017-09-30T06:04:44.539Z,101438
2017-09-30T06:07:10.766Z,101438
2017-09-30T06:09:37.174Z,101435
2017-09-30T06:12:03.403Z,101429
2017-09-30T06:14:29.630Z,101423
2017-09-30T06:16:56.176Z,101417
2017-09-30T06:19:22.434Z,101420
2017-09-30T06:21:48.697Z,101420
2017-09-30T06:24:14.965Z,101418
2017-09-30T06:26:41.938Z,101415
2017-09-30T06:29:08.914Z,101423
2017-09-30T06:31:35.158Z,101429
2017-09-30T06:34:01.421Z,101425
2017-09-30T06:36:27.901Z,101423
2017-09-30T06:38:54.152Z,101422
2017-09-30T06:41:20.391Z,101414
2017-09-30T06:43:46.933Z,101420
2017-09-30T06:46:13.197Z,101422
2017-09-30T06:48:41.026Z,101410
2017-09-30T06:51:08.143Z,101413
2017-09-30T06:53:34.405Z,101425
2017-09-30T06:56:00.742Z,101427
2017-09-30T06:58:27.074Z,101427
2017-09-30T07:00:53.337Z,101418
2017-09-30T07:03:20.485Z,101410
2017-09-30T07:05:47.996Z,101410
2017-09-30T07:08:14.513Z,101406
2017-09-30T07:10:40.991Z,101411
2017-09-30T07:13:07.438Z,101419
2017-09-30T07:15:34.624Z,101417
2017-09-30T07:18:01.201Z,101417
2017-09-30T07:20:28.092Z,101409
2017-09-30T07:22:54.612Z,101408
2017-09-30T07:25:31.482Z,101409
2017-09-30T07:27:58.785Z,101411
2017-09-30T07:30:25.258Z,101407
2017-09-30T07:32:52.311Z,101405
2017-09-30T07:35:18.889Z,101398
2017-09-30T07:37:45.411Z,101398
2017-09-30T07:40:12.284Z,101396
2017-09-30T07:42:39.360Z,101387
2017-09-30T07:45:07.004Z,101383
2017-09-30T07:47:34.127Z,101378
2017-09-30T07:50:00.495Z,101373
2017-09-30T07:52:27.580Z,101372
2017-09-30T07:54:54.848Z,101371
2017-09-30T07:57:21.315Z,101366
2017-09-30T07:59:48.777Z,101360
2017-09-30T08:02:15.128Z,101355
2017-09-30T08:04:41.557Z,101358
2017-09-30T08:07:07.915Z,101360
2017-09-30T08:09:35.660Z,101366
2017-09-30T08:12:01.982Z,101366
2017-09-30T08:14:28.886Z,101362
2017-09-30T08:16:55.339Z,101360
2017-09-30T08:19:22.312Z,101361
2017-09-30T08:21:49.757Z,101354
2017-09-30T08:24:16.245Z,101352
2017-09-30T08:26:42.583Z,101344
2017-09-30T08:29:08.923Z,101345
2017-09-30T08:31:35.767Z,101340
2017-09-30T08:34:02.651Z,101336
2017-09-30T08:36:28.989Z,101336
2017-09-30T08:38:56.433Z,101335
2017-09-30T08:41:24.409Z,101332
2017-09-30T08:43:57.664Z,101324
2017-09-30T08:46:24.218Z,101321
2017-09-30T08:48:51.877Z,101324
2017-09-30T08:51:19.096Z,101324
2017-09-30T08:53:46.492Z,101322
2017-09-30T08:56:13.945Z,101321
2017-09-30T08:58:41.522Z,101318
2017-09-30T09:01:09.161Z,101319
2017-09-30T09:03:36.696Z,101320
2017-09-30T09:06:05.163Z,101319
2017-09-30T09:08:36.146Z,101320
2017-09-30T09:11:08.675Z,101318
2017-09-30T09:13:39.598Z,101315
2017-09-30T09:16:07.013Z,101310
2017-09-30T09:18:34.429Z,101307
2017-09-30T09:21:03.103Z,101304
2017-09-30T09:23:30.386Z,101298
2017-09-30T09:26:00.241Z,101293
2017-09-30T09:28:32.732Z,101290
2017-09-30T09:31:00.357Z,101297
2017-09-30T09:33:29.053Z,101297
2017-09-30T09:35:56.820Z,101296
2017-09-30T09:38:24.145Z,101294
2017-09-30T09:40:52.358Z,101296
2017-09-30T09:43:22.150Z,101290
2017-09-30T09:45:50.609Z,101288
2017-09-30T09:48:22.031Z,101290
2017-09-30T09:50:49.490Z,101288
2017-09-30T09:53:20.680Z,101286
2017-09-30T09:55:52.530Z,101287
2017-09-30T09:58:21.113Z,101286
2017-09-30T10:00:51.570Z,101280
2017-09-30T10:03:18.854Z,101280
2017-09-30T10:05:46.626Z,101278
2017-09-30T10:08:16.878Z,101273
2017-09-30T10:10:44.106Z,101274
2017-09-30T10:13:15.429Z,101278
2017-09-30T10:15:44.293Z,101277
2017-09-30T10:18:20.247Z,101275
2017-09-30T10:20:47.896Z,101279
2017-09-30T10:23:15.382Z,101284
2017-09-30T10:25:42.644Z,101284
2017-09-30T10:28:10.275Z,101289
2017-09-30T10:30:37.727Z,101292
2017-09-30T10:33:04.960Z,101297
2017-09-30T10:35:32.820Z,101308
2017-09-30T10:38:00.108Z,101309
2017-09-30T10:40:27.422Z,101312
2017-09-30T10:42:55.754Z,101311
2017-09-30T10:45:23.272Z,101308
2017-09-30T10:47:51.298Z,101309
2017-09-30T10:50:20.102Z,101307
2017-09-30T10:52:47.453Z,101310
2017-09-30T10:55:15.456Z,101307
2017-09-30T10:57:42.642Z,101300
2017-09-30T11:00:09.111Z,101296
2017-09-30T11:02:36.027Z,101292
2017-09-30T11:05:03.314Z,101284
2017-09-30T11:07:30.039Z,101278
2017-09-30T11:09:56.269Z,101281
2017-09-30T11:12:22.755Z,101272
2017-09-30T11:14:50.151Z,101273
2017-09-30T11:17:16.986Z,101269
2017-09-30T11:19:43.748Z,101271
2017-09-30T11:22:10.361Z,101268
2017-09-30T11:24:36.966Z,101269
2017-09-30T11:27:03.383Z,101265
2017-09-30T11:29:29.746Z,101264
2017-09-30T11:31:57.033Z,101270
2017-09-30T11:34:24.306Z,101269
2017-09-30T11:36:50.785Z,101268
2017-09-30T11:39:17.385Z,101263
2017-09-30T11:41:44.553Z,101263
2017-09-30T11:44:10.993Z,101260
2017-09-30T11:46:37.710Z,101261
2017-09-30T11:49:04.061Z,101254
2017-09-30T11:51:31.907Z,101250
2017-09-30T11:53:59.080Z,101252
2017-09-30T11:56:26.395Z,101239
2017-09-30T11:58:53.141Z,101243
2017-09-30T12:01:19.464Z,101235
2017-09-30T12:03:46.312Z,101235
2017-09-30T12:06:13.788Z,101237
2017-09-30T12:08:40.817Z,101232
2017-09-30T12:11:07.251Z,101227
2017-09-30T12:13:35.722Z,101222
2017-09-30T12:16:02.217Z,101223
2017-09-30T12:18:29.644Z,101218
2017-09-30T12:20:56.350Z,101212
2017-09-30T12:23:23.240Z,101205
2017-09-30T12:25:51.120Z,101198
2017-09-30T12:28:18.285Z,101200
2017-09-30T12:30:44.788Z,101196
2017-09-30T12:33:11.696Z,101203
2017-09-30T12:35:38.083Z,101203
2017-09-30T12:38:05.639Z,101201
2017-09-30T12:40:32.895Z,101205
2017-09-30T12:42:59.551Z,101201
2017-09-30T12:45:25.826Z,101196
2017-09-30T12:47:52.091Z,101190
2017-09-30T12:50:19.157Z,101192
2017-09-30T12:52:45.407Z,101195
2017-09-30T12:55:12.213Z,101209
2017-09-30T12:57:38.815Z,101206
2017-09-30T13:00:05.139Z,101204
2017-09-30T13:02:31.624Z,101203
2017-09-30T13:04:58.530Z,101210
2017-09-30T13:07:24.786Z,101212
2017-09-30T13:09:51.577Z,101210
2017-09-30T13:12:18.077Z,101209
2017-09-30T13:14:44.458Z,101210
2017-09-30T13:17:11.778Z,101207
2017-09-30T13:19:38.418Z,101204
2017-09-30T13:22:05.421Z,101207
2017-09-30T13:24:31.956Z,101201
2017-09-30T13:26:58.571Z,101202
2017-09-30T13:29:26.207Z,101195
2017-09-30T13:31:53.300Z,101206
2017-09-30T13:34:20.400Z,101200
2017-09-30T13:36:46.649Z,101194
2017-09-30T13:39:13.236Z,101188
2017-09-30T13:41:39.590Z,101188
2017-09-30T13:44:05.855Z,101185
2017-09-30T13:46:33.165Z,101179
2017-09-30T13:49:00.237Z,101187
2017-09-30T13:51:26.465Z,101182
2017-09-30T13:53:52.836Z,101175
2017-09-30T13:56:20.053Z,101174
2017-09-30T13:58:47.253Z,101176
2017-09-30T14:01:14.334Z,101170
2017-09-30T14:03:40.622Z,101168
2017-09-30T14:06:07.194Z,101165
2017-09-30T14:08:33.752Z,101165
2017-09-30T14:11:00.847Z,101159
2017-09-30T14:13:27.414Z,101161
2017-09-30T14:15:53.958Z,101159
2017-09-30T14:18:20.969Z,101155
2017-09-30T14:20:47.619Z,101152
2017-09-30T14:23:14.002Z,101152
2017-09-30T14:25:41.125Z,101150
2017-09-30T14:28:07.435Z,101146
2017-09-30T14:30:33.730Z,101147
2017-09-30T14:33:00.198Z,101148
2017-09-30T14:35:26.594Z,101142
2017-09-30T14:37:53.663Z,101138
2017-09-30T14:40:19.987Z,101134
2017-09-30T14:42:46.408Z,101128
2017-09-30T14:45:13.124Z,101128
2017-09-30T14:47:39.425Z,101128
2017-09-30T14:50:05.863Z,101120
2017-09-30T14:52:32.456Z,101121
2017-09-30T14:54:58.927Z,101119
2017-09-30T14:57:25.293Z,101111
2017-09-30T14:59:52.571Z,101109
2017-09-30T15:02:20.214Z,101108
2017-09-30T15:04:47.257Z,101105
2017-09-30T15:07:14.054Z,101107
2017-09-30T15:09:40.598Z,101109
2017-09-30T15:12:07.638Z,101105
2017-09-30T15:14:35.503Z,101106
2017-09-30T15:17:02.608Z,101105
2017-09-30T15:19:29.229Z,101105
2017-09-30T15:21:56.874Z,101107
2017-09-30T15:24:24.564Z,101100
2017-09-30T15:26:51.610Z,101098
2017-09-30T15:29:19.238Z,101093
2017-09-30T15:31:46.429Z,101093
2017-09-30T15:34:13.578Z,101092
2017-09-30T15:36:40.492Z,101086
2017-09-30T15:39:08.925Z,101086
2017-09-30T15:41:36.808Z,101080
2017-09-30T15:44:04.273Z,101082
2017-09-30T15:46:32.312Z,101080
2017-09-30T15:48:59.582Z,101081
2017-09-30T15:51:27.599Z,101076
2017-09-30T15:53:54.875Z,101077
2017-09-30T15:56:22.012Z,101075
2017-09-30T15:58:49.907Z,101073
2017-09-30T16:01:19.757Z,101073
2017-09-30T16:03:47.303Z,101068
2017-09-30T16:06:15.311Z,101063
2017-09-30T16:08:42.623Z,101065
2017-09-30T16:11:10.970Z,101067
2017-09-30T16:13:40.031Z,101061
2017-09-30T16:16:07.482Z,101056
2017-09-30T16:18:35.016Z,101063
2017-09-30T16:21:02.526Z,101061
2017-09-30T16:23:29.921Z,101060
2017-09-30T16:25:57.834Z,101061
2017-09-30T16:28:25.064Z,101061
2017-09-30T16:30:53.265Z,101059
2017-09-30T16:33:21.011Z,101053
2017-09-30T16:35:48.102Z,101059
2017-09-30T16:38:15.305Z,101058
2017-09-30T16:40:42.749Z,101059
2017-09-30T16:43:09.970Z,101051
2017-09-30T16:45:37.223Z,101053
2017-09-30T16:48:03.954Z,101052
2017-09-30T16:50:32.118Z,101047
2017-09-30T16:52:59.336Z,101047
2017-09-30T16:55:26.608Z,101047
2017-09-30T16:57:53.854Z,101044
2017-09-30T17:00:21.792Z,101047
2017-09-30T17:02:50.086Z,101043
2017-09-30T17:05:18.578Z,101043
2017-09-30T17:07:45.924Z,101034
2017-09-30T17:10:13.601Z,101034
2017-09-30T17:12:40.856Z,101038
2017-09-30T17:15:08.806Z,101034
2017-09-30T17:17:36.179Z,101035
2017-09-30T17:20:04.348Z,101035
2017-09-30T17:22:31.899Z,101035
2017-09-30T17:24:59.870Z,101041
2017-09-30T17:27:27.296Z,101043
2017-09-30T17:29:54.533Z,101041
2017-09-30T17:32:21.753Z,101040
2017-09-30T17:34:48.916Z,101043
2017-09-30T17:37:16.109Z,101040
2017-09-30T17:39:43.742Z,101041
2017-09-30T17:42:10.779Z,101046
2017-09-30T17:44:38.394Z,101045
2017-09-30T17:47:05.662Z,101038
2017-09-30T17:49:32.302Z,101039
2017-09-30T17:52:01.545Z,101039
2017-09-30T17:54:28.823Z,101035
2017-09-30T17:56:57.754Z,101032
2017-09-30T17:59:25.126Z,101037
2017-09-30T18:01:53.159Z,101027
2017-09-30T18:04:19.478Z,101024
2017-09-30T18:06:46.465Z,101021
2017-09-30T18:09:12.722Z,101024
2017-09-30T18:11:39.249Z,101021
2017-09-30T18:14:05.500Z,101020
2017-09-30T18:16:31.739Z,101015
2017-09-30T18:18:58.014Z,101016
2017-09-30T18:21:24.240Z,101017
2017-09-30T18:23:50.470Z,101016
2017-09-30T18:26:16.719Z,101015
2017-09-30T18:28:42.937Z,101018
2017-09-30T18:31:09.170Z,101023
2017-09-30T18:33:35.432Z,101024
2017-09-30T18:36:01.664Z,101025
2017-09-30T18:38:27.902Z,101028
2017-09-30T18:40:54.908Z,101027
2017-09-30T18:43:21.143Z,101022
2017-09-30T18:45:47.370Z,101020
2017-09-30T18:48:13.633Z,101021
2017-09-30T18:50:40.610Z,101019
2017-09-30T18:53:06.846Z,101015
2017-09-30T18:55:33.291Z,101019
2017-09-30T18:57:59.521Z,101020
2017-09-30T19:00:25.745Z,101021
2017-09-30T19:02:52.218Z,101023
2017-09-30T19:05:18.457Z,101027
2017-09-30T19:07:45.421Z,101032
2017-09-30T19:10:11.901Z,101032
2017-09-30T19:12:38.133Z,101044
2017-09-30T19:15:04.384Z,101055
2017-09-30T19:17:30.614Z,101061
2017-09-30T19:19:57.587Z,101069
2017-09-30T19:22:23.852Z,101063
2017-09-30T19:24:50.079Z,101064
2017-09-30T19:27:16.375Z,101065
2017-09-30T19:29:42.623Z,101064
2017-09-30T19:32:08.845Z,101070
2017-09-30T19:34:35.082Z,101063
2017-09-30T19:37:01.856Z,101066
2017-09-30T19:39:28.087Z,101068
2017-09-30T19:41:54.313Z,101068
2017-09-30T19:44:20.942Z,101065
2017-09-30T19:46:47.181Z,101066
2017-09-30T19:49:13.420Z,101068
2017-09-30T19:51:39.706Z,101072
2017-09-30T19:54:05.967Z,101076
2017-09-30T19:56:32.199Z,101083
2017-09-30T19:58:58.554Z,101079
2017-09-30T20:01:25.529Z,101080
2017-09-30T20:03:51.761Z,101090
2017-09-30T20:06:18.028Z,101096
2017-09-30T20:08:44.262Z,101089
2017-09-30T20:11:10.481Z,101096
2017-09-30T20:13:36.738Z,101101
2017-09-30T20:16:03.708Z,101119
2017-09-30T20:18:29.946Z,101124
2017-09-30T20:20:56.302Z,101131
2017-09-30T20:23:23.273Z,101131
2017-09-30T20:25:49.501Z,101141
2017-09-30T20:28:15.846Z,101140
2017-09-30T20:30:42.818Z,101142
2017-09-30T20:33:09.054Z,101147
2017-09-30T20:35:35.342Z,101147
2017-09-30T20:38:02.345Z,101152
2017-09-30T20:40:28.582Z,101149
2017-09-30T20:42:54.839Z,101157
2017-09-30T20:45:21.809Z,101160
2017-09-30T20:47:48.784Z,101166
2017-09-30T20:50:15.433Z,101175
2017-09-30T20:52:41.677Z,101179
2017-09-30T20:55:07.923Z,101180
2017-09-30T20:57:34.155Z,101177
2017-09-30T21:00:01.129Z,101184
2017-09-30T21:02:27.486Z,101180
2017-09-30T21:04:53.724Z,101187
2017-09-30T21:07:19.941Z,101192
2017-09-30T21:09:46.187Z,101195
2017-09-30T21:12:12.422Z,101201
2017-09-30T21:14:38.669Z,101197
2017-09-30T21:17:05.074Z,101200
2017-09-30T21:19:31.318Z,101194
2017-09-30T21:21:57.578Z,101195
2017-09-30T21:24:24.568Z,101195
2017-09-30T21:26:50.810Z,101199
2017-09-30T21:29:17.063Z,101208
2017-09-30T21:31:44.077Z,101209
2017-09-30T21:34:10.310Z,101207
2017-09-30T21:36:36.546Z,101207
2017-09-30T21:39:02.857Z,101215
2017-09-30T21:41:29.838Z,101217
2017-09-30T21:43:57.162Z,101221
2017-09-30T21:46:23.394Z,101223
2017-09-30T21:48:49.620Z,101235
2017-09-30T21:51:16.130Z,101238
2017-09-30T21:53:42.377Z,101244
2017-09-30T21:56:08.613Z,101249
2017-09-30T21:58:35.682Z,101249
2017-09-30T22:01:01.917Z,101249
2017-09-30T22:03:28.905Z,101247
2017-09-30T22:05:55.477Z,101246
2017-09-30T22:08:21.727Z,101246
2017-09-30T22:10:48.716Z,101244
2017-09-30T22:13:14.995Z,101249
2017-09-30T22:15:41.257Z,101246
2017-09-30T22:18:07.525Z,101249
2017-09-30T22:20:33.954Z,101254
2017-09-30T22:23:00.210Z,101255
2017-09-30T22:25:26.478Z,101263
2017-09-30T22:27:52.725Z,101259
2017-09-30T22:30:18.953Z,101263
2017-09-30T22:32:45.226Z,101267
2017-09-30T22:35:11.482Z,101268
2017-09-30T22:37:38.453Z,101273
2017-09-30T22:40:04.681Z,101270
2017-09-30T22:42:30.995Z,101266
2017-09-30T22:44:57.213Z,101263
2017-09-30T22:47:24.182Z,101272
2017-09-30T22:49:50.744Z,101277
2017-09-30T22:52:16.973Z,101278
2017-09-30T22:54:43.200Z,101279
2017-09-30T22:57:09.732Z,101281
2017-09-30T22:59:35.991Z,101279
2017-09-30T23:02:02.234Z,101286
2017-09-30T23:04:29.257Z,101280
2017-09-30T23:06:55.501Z,101284
2017-09-30T23:09:22.477Z,101290
2017-09-30T23:11:48.745Z,101293
2017-09-30T23:14:14.993Z,101293
2017-09-30T23:16:41.242Z,101300
2017-09-30T23:19:08.245Z,101301
2017-09-30T23:21:34.482Z,101306
2017-09-30T23:24:00.727Z,101304
2017-09-30T23:26:32.978Z,101314
2017-09-30T23:28:59.225Z,101312
2017-09-30T23:31:25.458Z,101312
